Anaheim, California
Current Conditions -  °F | °C
As of 3:53 AM on Thursday 29 Jan 2015 (Local Time) from KFUL Reporting Station
Clear Clear  
Wind Chill: 16°   Ceiling: Unl
Heat Index: 16°   Visibility: 10mi
Dew Point:   Wind: 0mph
Humidity: 60%   Direction: NA
Pressure: 30.01"   Gusts: NA
Location:  33.83°N, 117.91°W
Report Text: KFUL 291153Z 00000KT 10SM CLR 16/08 A3001 RMK AO2 SLP162 T01610083 10206 20156 58006
Loading
Personal Weather Stations






























Interactive Weather Map New forecast layout! Learn more

10-Day Weather Forecast

Advertisements
Track Severe Weather on mobile